Time;durP1;ratioP1;P1;durP2;ratioP2;P2;SDS_P1;SDS_P2;PMS_P1;PMS_P2;Temp;Humidity;BMP_temperature;BMP_pressure;BME280_temperature;BME280_humidity;BME280_pressure;Samples;Min_cycle;Max_cycle;Signal;HPM_P1;HPM_P2
2021/06/09 00:01:34;;;;;;;6.53;3.45;;;;;;;;;;5156279;27;20046;-63
2021/06/09 00:04:00;;;;;;;7.35;3.15;;;;;;;;;;5156332;27;20107;-64
2021/06/09 00:06:27;;;;;;;6.13;3.70;;;;;;;;;;5129889;27;20101;-63
2021/06/09 00:08:53;;;;;;;6.95;3.60;;;;;;;;;;5135379;27;20023;-64
2021/06/09 00:11:21;;;;;;;7.30;3.33;;;;;;;;;;5135351;27;20019;-63
2021/06/09 00:13:47;;;;;;;6.97;3.90;;;;;;;;;;5135311;27;20492;-63
2021/06/09 00:16:15;;;;;;;9.30;3.50;;;;;;;;;;5135221;27;20470;-65
2021/06/09 00:18:41;;;;;;;8.93;3.65;;;;;;;;;;5135261;27;20512;-63
2021/06/09 00:21:07;;;;;;;6.70;4.00;;;;;;;;;;5135074;27;20027;-63
2021/06/09 00:23:33;;;;;;;5.78;3.42;;;;;;;;;;5134793;27;20019;-63
2021/06/09 00:26:04;;;;;;;7.35;3.40;;;;;;;;;;5134920;27;20027;-64
2021/06/09 00:28:31;;;;;;;6.30;3.83;;;;;;;;;;5116671;27;20061;-63
2021/06/09 00:30:58;;;;;;;7.45;3.63;;;;;;;;;;5134855;27;20535;-64
2021/06/09 00:33:28;;;;;;;6.93;3.63;;;;;;;;;;5134886;27;20132;-64
2021/06/09 00:35:56;;;;;;;7.30;3.65;;;;;;;;;;5134879;27;20478;-64
2021/06/09 00:38:22;;;;;;;6.57;3.70;;;;;;;;;;5134988;27;20016;-64
2021/06/09 00:40:48;;;;;;;8.65;4.38;;;;;;;;;;5140590;27;20430;-65
2021/06/09 00:43:22;;;;;;;6.40;4.03;;;;;;;;;;5155495;27;20501;-63
2021/06/09 00:45:56;;;;;;;7.72;3.95;;;;;;;;;;5136831;27;20022;-63
2021/06/09 00:48:26;;;;;;;7.43;4.20;;;;;;;;;;5155463;27;20027;-63
2021/06/09 00:50:53;;;;;;;7.30;4.13;;;;;;;;;;5155155;27;20067;-64
2021/06/09 00:53:29;;;;;;;7.35;4.38;;;;;;;;;;5155226;27;20030;-63
2021/06/09 00:55:56;;;;;;;7.50;4.07;;;;;;;;;;5155040;27;20043;-64
2021/06/09 00:58:22;;;;;;;6.38;4.50;;;;;;;;;;5154995;27;20458;-64
2021/06/09 01:00:48;;;;;;;7.93;4.72;;;;;;;;;;5136222;27;20482;-64
2021/06/09 01:03:14;;;;;;;7.63;4.65;;;;;;;;;;5154835;27;20484;-64
2021/06/09 01:05:40;;;;;;;6.18;4.30;;;;;;;;;;5154238;27;20015;-63
2021/06/09 01:08:07;;;;;;;9.05;4.40;;;;;;;;;;5148616;27;20061;-63
2021/06/09 01:10:34;;;;;;;7.40;4.50;;;;;;;;;;5134058;27;20458;-63
2021/06/09 01:13:00;;;;;;;8.23;4.40;;;;;;;;;;5133784;27;20031;-63
2021/06/09 01:15:27;;;;;;;6.55;4.25;;;;;;;;;;5133957;27;20019;-64
2021/06/09 01:17:53;;;;;;;6.80;4.43;;;;;;;;;;5133838;27;20023;-63
2021/06/09 01:20:20;;;;;;;8.38;4.53;;;;;;;;;;5133923;27;20030;-63
2021/06/09 01:22:46;;;;;;;8.30;4.63;;;;;;;;;;5133831;27;20454;-63
2021/06/09 01:25:13;;;;;;;7.47;5.10;;;;;;;;;;5115500;27;20147;-63
2021/06/09 01:27:39;;;;;;;17.58;5.05;;;;;;;;;;5115306;27;20065;-64
2021/06/09 01:30:07;;;;;;;9.20;4.35;;;;;;;;;;5133833;27;20113;-63
2021/06/09 01:32:33;;;;;;;8.30;4.70;;;;;;;;;;5133819;27;20023;-64
2021/06/09 01:35:00;;;;;;;6.93;4.28;;;;;;;;;;5133690;27;20015;-64
2021/06/09 01:37:26;;;;;;;7.25;4.05;;;;;;;;;;5115259;27;20028;-63
2021/06/09 01:39:58;;;;;;;6.95;4.10;;;;;;;;;;5133624;27;20019;-64
2021/06/09 01:42:25;;;;;;;6.47;3.85;;;;;;;;;;5114674;27;20081;-63
2021/06/09 01:44:51;;;;;;;8.00;4.90;;;;;;;;;;5133403;27;20046;-64
2021/06/09 01:47:17;;;;;;;7.85;4.93;;;;;;;;;;5133417;27;20035;-63
2021/06/09 01:49:43;;;;;;;7.85;5.03;;;;;;;;;;5133347;27;20508;-64
2021/06/09 01:52:10;;;;;;;8.10;4.70;;;;;;;;;;5133482;27;20031;-64
2021/06/09 01:54:36;;;;;;;7.35;5.00;;;;;;;;;;5115007;27;20073;-64
2021/06/09 01:57:02;;;;;;;9.50;4.95;;;;;;;;;;5133343;27;20500;-63
2021/06/09 01:59:31;;;;;;;6.40;4.70;;;;;;;;;;5133228;27;20566;-64
2021/06/09 02:01:57;;;;;;;7.97;5.15;;;;;;;;;;5133203;27;20019;-63
2021/06/09 02:04:24;;;;;;;9.50;4.95;;;;;;;;;;5133082;27;20164;-64
2021/06/09 02:06:50;;;;;;;9.27;5.18;;;;;;;;;;5132905;27;20114;-64
2021/06/09 02:09:17;;;;;;;7.07;4.80;;;;;;;;;;5133076;27;20076;-65
2021/06/09 02:11:44;;;;;;;9.77;5.00;;;;;;;;;;5132958;27;20496;-66
2021/06/09 02:14:11;;;;;;;8.95;5.55;;;;;;;;;;5132843;27;20019;-64
2021/06/09 02:16:38;;;;;;;9.35;5.57;;;;;;;;;;5132026;27;20098;-63
2021/06/09 02:19:05;;;;;;;9.63;6.40;;;;;;;;;;5114401;27;20049;-63
2021/06/09 02:21:32;;;;;;;9.70;5.30;;;;;;;;;;5132869;27;20077;-63
2021/06/09 02:23:58;;;;;;;8.60;5.95;;;;;;;;;;5132953;27;20019;-63
2021/06/09 02:26:24;;;;;;;10.43;5.63;;;;;;;;;;5132758;27;20031;-63
2021/06/09 02:28:51;;;;;;;11.07;6.30;;;;;;;;;;5132758;27;20490;-63
2021/06/09 02:31:17;;;;;;;7.45;5.70;;;;;;;;;;5132695;27;20023;-63
2021/06/09 02:33:43;;;;;;;7.13;5.50;;;;;;;;;;5130174;27;20015;-66
2021/06/09 02:36:10;;;;;;;7.97;5.93;;;;;;;;;;5134829;27;20461;-64
2021/06/09 02:38:37;;;;;;;12.32;6.55;;;;;;;;;;5153429;27;20026;-64
2021/06/09 02:41:03;;;;;;;9.02;5.85;;;;;;;;;;5153174;27;20519;-66
2021/06/09 02:43:32;;;;;;;7.20;5.80;;;;;;;;;;5152245;27;20027;-64
2021/06/09 02:46:17;;;;;;;7.45;5.28;;;;;;;;;;5153384;27;20521;-63
2021/06/09 02:48:45;;;;;;;11.75;6.03;;;;;;;;;;5153331;27;20106;-64
2021/06/09 02:51:18;;;;;;;8.25;6.03;;;;;;;;;;5153275;27;20018;-64
2021/06/09 02:53:56;;;;;;;10.77;5.97;;;;;;;;;;5153287;27;20075;-64
2021/06/09 02:56:28;;;;;;;12.90;6.25;;;;;;;;;;5153271;27;20034;-63
2021/06/09 02:58:54;;;;;;;8.32;5.85;;;;;;;;;;5153153;27;20071;-63
2021/06/09 03:01:23;;;;;;;11.02;6.03;;;;;;;;;;5153100;27;20026;-64
2021/06/09 03:04:08;;;;;;;9.15;6.28;;;;;;;;;;5153203;27;20023;-64
2021/06/09 03:06:49;;;;;;;11.35;6.63;;;;;;;;;;5153060;27;20121;-63
2021/06/09 03:09:22;;;;;;;9.55;5.93;;;;;;;;;;5153076;27;20089;-63
2021/06/09 03:12:09;;;;;;;10.00;6.45;;;;;;;;;;5152985;27;20356;-63
2021/06/09 03:17:30;;;;;;;10.70;6.43;;;;;;;;;;5153300;27;20073;-63
2021/06/09 03:19:56;;;;;;;11.07;6.32;;;;;;;;;;5152985;27;20022;-63
2021/06/09 03:22:38;;;;;;;7.93;6.55;;;;;;;;;;5153093;27;20135;-63
2021/06/09 03:25:05;;;;;;;8.82;6.25;;;;;;;;;;5152978;27;20019;-63
2021/06/09 03:27:40;;;;;;;11.55;6.55;;;;;;;;;;5153634;27;20031;-63
2021/06/09 03:30:10;;;;;;;14.70;7.00;;;;;;;;;;5156918;27;20030;-64
2021/06/09 03:32:51;;;;;;;16.25;7.25;;;;;;;;;;5156936;27;20439;-63
2021/06/09 03:35:27;;;;;;;14.30;6.95;;;;;;;;;;5156921;27;20025;-64
2021/06/09 03:37:54;;;;;;;8.77;6.60;;;;;;;;;;5156966;27;20483;-63
2021/06/09 03:40:22;;;;;;;10.90;6.32;;;;;;;;;;5156918;27;20026;-64
2021/06/09 03:42:52;;;;;;;11.68;6.65;;;;;;;;;;5137990;27;20495;-63
2021/06/09 03:45:19;;;;;;;10.18;6.53;;;;;;;;;;5156680;27;20551;-66
2021/06/09 03:47:46;;;;;;;11.80;6.63;;;;;;;;;;5156659;27;20051;-64
2021/06/09 03:50:14;;;;;;;11.10;7.32;;;;;;;;;;5156726;27;20356;-66
2021/06/09 03:52:40;;;;;;;10.43;7.22;;;;;;;;;;5156443;27;20549;-64
2021/06/09 03:55:09;;;;;;;12.38;7.18;;;;;;;;;;5137854;27;20089;-63
2021/06/09 03:57:36;;;;;;;11.00;6.60;;;;;;;;;;5156569;27;20019;-63
2021/06/09 04:00:03;;;;;;;10.18;7.00;;;;;;;;;;5156746;27;20022;-63
2021/06/09 04:02:30;;;;;;;10.65;7.10;;;;;;;;;;5137793;27;20058;-64
2021/06/09 04:04:57;;;;;;;11.30;7.10;;;;;;;;;;5156419;27;20033;-63
2021/06/09 04:07:24;;;;;;;14.45;7.40;;;;;;;;;;5156244;27;20026;-63
2021/06/09 04:09:51;;;;;;;13.35;7.18;;;;;;;;;;5156278;27;20015;-64
2021/06/09 04:12:18;;;;;;;9.60;6.90;;;;;;;;;;5156185;27;20535;-63
2021/06/09 04:14:46;;;;;;;14.60;7.13;;;;;;;;;;5137653;27;20018;-64
2021/06/09 04:17:13;;;;;;;9.55;7.00;;;;;;;;;;5156157;27;20485;-63
2021/06/09 04:19:43;;;;;;;9.82;7.03;;;;;;;;;;5156110;27;20101;-63
2021/06/09 04:22:10;;;;;;;10.85;6.55;;;;;;;;;;5155947;27;20615;-63
2021/06/09 04:24:38;;;;;;;10.35;7.03;;;;;;;;;;5137454;27;20033;-63
2021/06/09 04:27:30;;;;;;;11.38;6.70;;;;;;;;;;5155765;27;20436;-64
2021/06/09 04:29:57;;;;;;;11.60;6.57;;;;;;;;;;5133116;27;20458;-63
2021/06/09 04:32:24;;;;;;;10.68;6.97;;;;;;;;;;5155959;27;20407;-64
2021/06/09 04:34:52;;;;;;;9.85;6.93;;;;;;;;;;5155860;27;20019;-64
2021/06/09 04:37:20;;;;;;;10.20;6.72;;;;;;;;;;5155852;27;20027;-64
2021/06/09 04:39:47;;;;;;;10.55;6.53;;;;;;;;;;5154690;27;20026;-64
2021/06/09 04:42:13;;;;;;;11.52;7.13;;;;;;;;;;5136767;27;20068;-64
2021/06/09 04:44:40;;;;;;;11.88;6.97;;;;;;;;;;5155695;27;20014;-64
2021/06/09 04:47:07;;;;;;;11.38;7.03;;;;;;;;;;5136885;27;20046;-64
2021/06/09 04:49:35;;;;;;;13.00;7.28;;;;;;;;;;5155411;27;20033;-64
2021/06/09 04:52:01;;;;;;;10.73;6.90;;;;;;;;;;5136745;27;20022;-64
2021/06/09 04:54:27;;;;;;;16.27;7.55;;;;;;;;;;5155501;27;20027;-64
2021/06/09 04:56:54;;;;;;;13.20;7.10;;;;;;;;;;5152579;27;20037;-64
2021/06/09 04:59:20;;;;;;;10.45;6.82;;;;;;;;;;5133007;27;20031;-64
2021/06/09 05:01:46;;;;;;;11.48;7.00;;;;;;;;;;5132887;27;20582;-65
2021/06/09 05:04:12;;;;;;;11.23;7.05;;;;;;;;;;5134229;27;20050;-64
2021/06/09 05:06:38;;;;;;;14.93;6.72;;;;;;;;;;5134404;27;20124;-64
2021/06/09 05:09:05;;;;;;;12.38;6.90;;;;;;;;;;5134574;27;20068;-64
2021/06/09 05:11:43;;;;;;;9.85;7.18;;;;;;;;;;5134105;27;20471;-64
2021/06/09 05:14:31;;;;;;;12.38;6.95;;;;;;;;;;5134055;27;20045;-62
2021/06/09 05:16:58;;;;;;;10.40;6.88;;;;;;;;;;5134022;27;20026;-63
2021/06/09 05:19:26;;;;;;;10.80;6.88;;;;;;;;;;5134163;27;20106;-63
2021/06/09 05:21:54;;;;;;;12.27;6.38;;;;;;;;;;5133988;27;20080;-64
2021/06/09 05:24:21;;;;;;;13.32;6.97;;;;;;;;;;5133571;27;20111;-63
2021/06/09 05:26:48;;;;;;;13.13;7.18;;;;;;;;;;5134037;27;20034;-63
2021/06/09 05:29:16;;;;;;;11.48;7.28;;;;;;;;;;5133643;27;20023;-63
2021/06/09 05:31:46;;;;;;;10.07;6.38;;;;;;;;;;5133702;27;20029;-63
2021/06/09 05:34:12;;;;;;;15.52;7.32;;;;;;;;;;5151995;27;20015;-63
2021/06/09 05:36:38;;;;;;;11.25;6.50;;;;;;;;;;5154505;27;20364;-63
2021/06/09 05:39:05;;;;;;;9.35;7.05;;;;;;;;;;5154455;27;20469;-63
2021/06/09 05:41:31;;;;;;;10.68;6.38;;;;;;;;;;5154211;27;20046;-63
2021/06/09 05:43:57;;;;;;;11.93;6.70;;;;;;;;;;5154294;27;20027;-63
2021/06/09 05:46:26;;;;;;;9.50;6.68;;;;;;;;;;5154145;27;20477;-63
2021/06/09 05:48:53;;;;;;;10.60;6.25;;;;;;;;;;5135249;27;20529;-63
2021/06/09 05:51:19;;;;;;;13.27;7.55;;;;;;;;;;5153631;27;20018;-63
2021/06/09 05:53:45;;;;;;;16.38;7.18;;;;;;;;;;5153999;27;20023;-63
2021/06/09 05:56:11;;;;;;;11.90;6.85;;;;;;;;;;5153924;27;20022;-63
2021/06/09 05:58:40;;;;;;;14.88;7.63;;;;;;;;;;5135448;27;20083;-63
2021/06/09 06:01:08;;;;;;;13.88;7.70;;;;;;;;;;5153784;27;20015;-63
2021/06/09 06:03:35;;;;;;;14.95;8.02;;;;;;;;;;5154047;27;20027;-63
2021/06/09 06:06:09;;;;;;;14.82;7.18;;;;;;;;;;5153740;27;20019;-63
2021/06/09 06:08:36;;;;;;;11.15;6.93;;;;;;;;;;5154024;27;20023;-63
2021/06/09 06:11:05;;;;;;;14.05;7.63;;;;;;;;;;5153768;27;20019;-63
2021/06/09 06:13:31;;;;;;;11.52;6.95;;;;;;;;;;5153546;27;20049;-64
2021/06/09 06:15:58;;;;;;;15.88;6.75;;;;;;;;;;5153817;27;20067;-63
2021/06/09 06:18:31;;;;;;;19.48;7.55;;;;;;;;;;5153750;27;20038;-63
2021/06/09 06:20:57;;;;;;;16.02;7.47;;;;;;;;;;5153538;27;20029;-63
2021/06/09 06:23:25;;;;;;;16.33;7.45;;;;;;;;;;5153567;27;20022;-63
2021/06/09 06:25:51;;;;;;;15.40;7.43;;;;;;;;;;5153404;27;20027;-63
2021/06/09 06:28:17;;;;;;;15.73;7.25;;;;;;;;;;5153450;27;20034;-63
2021/06/09 06:30:43;;;;;;;15.00;7.45;;;;;;;;;;5153358;27;20033;-63
2021/06/09 06:33:09;;;;;;;13.65;7.68;;;;;;;;;;5153427;27;20492;-63
2021/06/09 06:35:36;;;;;;;10.00;7.07;;;;;;;;;;5153336;27;20465;-63
2021/06/09 06:38:02;;;;;;;12.20;6.43;;;;;;;;;;5153251;27;20054;-63
2021/06/09 06:40:31;;;;;;;14.65;7.80;;;;;;;;;;5153185;27;20033;-64
2021/06/09 06:42:57;;;;;;;9.85;6.05;;;;;;;;;;5134583;27;20057;-63
2021/06/09 06:45:24;;;;;;;14.65;7.18;;;;;;;;;;5153288;27;20027;-63
2021/06/09 06:47:54;;;;;;;16.10;7.47;;;;;;;;;;5152986;27;20030;-64
2021/06/09 06:50:20;;;;;;;14.55;6.75;;;;;;;;;;5152839;27;20015;-63
2021/06/09 06:52:47;;;;;;;8.35;6.18;;;;;;;;;;5153135;27;20026;-63
2021/06/09 06:55:13;;;;;;;13.93;6.30;;;;;;;;;;5153192;27;20023;-63
2021/06/09 06:57:40;;;;;;;17.08;6.28;;;;;;;;;;5152935;27;20036;-64
2021/06/09 07:00:11;;;;;;;12.93;6.00;;;;;;;;;;5152969;27;20019;-63
2021/06/09 07:02:38;;;;;;;9.75;5.80;;;;;;;;;;5152595;27;20061;-63
2021/06/09 07:05:05;;;;;;;15.70;6.03;;;;;;;;;;5153017;27;20019;-63
2021/06/09 07:07:33;;;;;;;11.75;5.50;;;;;;;;;;5152895;27;20149;-63
2021/06/09 07:10:02;;;;;;;8.20;5.63;;;;;;;;;;5153057;27;20028;-63
2021/06/09 07:12:28;;;;;;;11.23;6.00;;;;;;;;;;5153036;27;20019;-63
2021/06/09 07:14:54;;;;;;;12.48;5.72;;;;;;;;;;5152948;27;20023;-63
2021/06/09 07:17:21;;;;;;;10.80;5.90;;;;;;;;;;5152889;27;20034;-64
2021/06/09 07:19:47;;;;;;;14.32;5.03;;;;;;;;;;5152974;27;20019;-63
2021/06/09 07:22:14;;;;;;;13.57;5.32;;;;;;;;;;5152956;27;20030;-62
2021/06/09 07:24:40;;;;;;;10.52;4.97;;;;;;;;;;5152909;27;20346;-63
2021/06/09 07:27:06;;;;;;;11.10;4.80;;;;;;;;;;5152809;27;20026;-63
2021/06/09 07:29:34;;;;;;;9.40;5.75;;;;;;;;;;5153005;27;20025;-63
2021/06/09 07:32:00;;;;;;;9.77;4.55;;;;;;;;;;5152745;27;20568;-67
2021/06/09 07:34:26;;;;;;;12.90;4.45;;;;;;;;;;5152638;27;20015;-63
2021/06/09 07:36:56;;;;;;;10.02;4.95;;;;;;;;;;5152676;27;20351;-65
2021/06/09 07:39:31;;;;;;;11.15;4.55;;;;;;;;;;5152774;27;20026;-63
2021/06/09 07:41:57;;;;;;;12.77;4.40;;;;;;;;;;5152332;27;20038;-63
2021/06/09 07:44:24;;;;;;;9.95;4.65;;;;;;;;;;5152610;27;20101;-63
2021/06/09 07:46:51;;;;;;;10.02;4.68;;;;;;;;;;5146264;27;20039;-63
2021/06/09 07:49:18;;;;;;;7.35;4.22;;;;;;;;;;5113109;28;20100;-64
2021/06/09 07:51:45;;;;;;;9.73;4.68;;;;;;;;;;5145977;27;20054;-64
2021/06/09 07:54:13;;;;;;;9.23;5.18;;;;;;;;;;5151455;27;20030;-65
2021/06/09 07:56:43;;;;;;;10.68;5.00;;;;;;;;;;5152498;27;20026;-64
2021/06/09 07:59:09;;;;;;;11.05;4.70;;;;;;;;;;5152503;27;20045;-66
2021/06/09 08:01:36;;;;;;;7.38;4.57;;;;;;;;;;5152459;27;20018;-61
2021/06/09 08:04:02;;;;;;;10.38;4.97;;;;;;;;;;5140897;27;20094;-64
2021/06/09 08:06:29;;;;;;;7.68;4.35;;;;;;;;;;5131594;28;20035;-63
2021/06/09 08:08:55;;;;;;;9.95;4.15;;;;;;;;;;5113309;28;20106;-63
2021/06/09 08:11:21;;;;;;;6.40;3.92;;;;;;;;;;5131438;28;20030;-63
2021/06/09 08:13:48;;;;;;;6.57;3.72;;;;;;;;;;5131455;27;20023;-65
2021/06/09 08:16:17;;;;;;;13.30;4.57;;;;;;;;;;5134793;27;20397;-62
2021/06/09 08:18:44;;;;;;;9.88;4.47;;;;;;;;;;5135317;27;20028;-62
2021/06/09 08:21:18;;;;;;;10.07;4.70;;;;;;;;;;5135283;27;20015;-62
2021/06/09 08:23:45;;;;;;;10.57;4.03;;;;;;;;;;5134981;27;20019;-61
2021/06/09 08:26:12;;;;;;;13.27;3.90;;;;;;;;;;5135042;27;20474;-64
2021/06/09 08:28:40;;;;;;;9.32;4.50;;;;;;;;;;5135063;27;20037;-61
2021/06/09 08:31:07;;;;;;;7.95;4.05;;;;;;;;;;5134688;27;20058;-63
2021/06/09 08:33:35;;;;;;;6.50;4.13;;;;;;;;;;5116793;27;20447;-64
2021/06/09 08:36:02;;;;;;;9.23;4.90;;;;;;;;;;5135385;27;20470;-65
2021/06/09 08:38:28;;;;;;;7.22;3.65;;;;;;;;;;5135466;27;20023;-65
2021/06/09 08:40:54;;;;;;;8.32;4.00;;;;;;;;;;5134701;27;20084;-64
2021/06/09 08:43:21;;;;;;;10.02;4.68;;;;;;;;;;5135655;27;20488;-64
2021/06/09 08:45:48;;;;;;;9.18;4.13;;;;;;;;;;5135386;27;20076;-65
2021/06/09 08:48:14;;;;;;;8.45;4.13;;;;;;;;;;5135224;27;20073;-64
2021/06/09 08:50:41;;;;;;;9.85;3.85;;;;;;;;;;5135366;27;20026;-64
2021/06/09 08:53:09;;;;;;;13.00;4.53;;;;;;;;;;5135026;27;20035;-63
2021/06/09 08:55:36;;;;;;;11.75;4.80;;;;;;;;;;5116968;27;20027;-63
2021/06/09 08:58:05;;;;;;;6.65;3.22;;;;;;;;;;5135433;27;20019;-65
2021/06/09 09:00:33;;;;;;;12.25;3.80;;;;;;;;;;5134957;27;20019;-66
2021/06/09 09:03:01;;;;;;;10.90;4.00;;;;;;;;;;5134598;27;20386;-66
2021/06/09 09:05:28;;;;;;;7.65;4.45;;;;;;;;;;5134980;27;20012;-64
2021/06/09 09:07:56;;;;;;;6.85;3.83;;;;;;;;;;5134839;27;20035;-64
2021/06/09 09:10:23;;;;;;;7.00;3.53;;;;;;;;;;5135070;27;20012;-66
2021/06/09 09:12:49;;;;;;;8.68;4.22;;;;;;;;;;5134825;27;20023;-66
2021/06/09 09:15:15;;;;;;;9.88;4.30;;;;;;;;;;5134878;27;20049;-68
2021/06/09 09:17:54;;;;;;;7.20;3.58;;;;;;;;;;5134891;27;20529;-63
2021/06/09 09:20:25;;;;;;;7.70;3.90;;;;;;;;;;5134672;27;20034;-68
2021/06/09 09:22:52;;;;;;;8.25;3.33;;;;;;;;;;5134845;27;20041;-63
2021/06/09 09:25:19;;;;;;;8.13;3.58;;;;;;;;;;5134322;27;20031;-66
2021/06/09 09:27:53;;;;;;;6.22;3.15;;;;;;;;;;5134500;27;20367;-61
2021/06/09 09:30:20;;;;;;;4.15;2.67;;;;;;;;;;5134563;27;20037;-61
2021/06/09 09:33:00;;;;;;;6.53;3.40;;;;;;;;;;5134607;27;20490;-66
2021/06/09 09:35:27;;;;;;;7.03;3.53;;;;;;;;;;5115910;27;20023;-63
2021/06/09 09:38:12;;;;;;;7.95;3.47;;;;;;;;;;5134167;27;20027;-61
2021/06/09 09:40:39;;;;;;;8.55;3.83;;;;;;;;;;5133210;27;20049;-66
2021/06/09 09:43:05;;;;;;;7.57;3.83;;;;;;;;;;5112729;28;20035;-65
2021/06/09 09:45:33;;;;;;;5.35;3.25;;;;;;;;;;5113102;28;20024;-64
2021/06/09 09:48:08;;;;;;;6.00;3.38;;;;;;;;;;5112795;28;20470;-67
2021/06/09 09:50:48;;;;;;;7.32;3.70;;;;;;;;;;5112813;28;20035;-62
2021/06/09 09:53:18;;;;;;;6.57;3.67;;;;;;;;;;5112946;28;20054;-65
2021/06/09 09:55:58;;;;;;;6.20;3.58;;;;;;;;;;5111822;28;20014;-65
2021/06/09 09:58:26;;;;;;;7.28;4.20;;;;;;;;;;5112815;28;20026;-65
2021/06/09 10:00:52;;;;;;;9.23;3.95;;;;;;;;;;5112937;28;20085;-61
2021/06/09 10:03:19;;;;;;;8.02;3.92;;;;;;;;;;5112651;28;20034;-64
2021/06/09 10:05:48;;;;;;;8.35;3.40;;;;;;;;;;5112727;28;20026;-65
2021/06/09 10:08:14;;;;;;;5.82;3.80;;;;;;;;;;5112588;28;20066;-64
2021/06/09 10:10:41;;;;;;;8.35;3.63;;;;;;;;;;5112485;28;20038;-61
2021/06/09 10:13:08;;;;;;;8.98;3.97;;;;;;;;;;5112575;28;20097;-61
2021/06/09 10:15:46;;;;;;;8.25;3.55;;;;;;;;;;5112511;28;20482;-64
2021/06/09 10:18:20;;;;;;;18.58;4.70;;;;;;;;;;5112557;28;20020;-63
2021/06/09 10:20:49;;;;;;;9.90;3.50;;;;;;;;;;5112300;28;20016;-62
2021/06/09 10:23:35;;;;;;;6.43;3.65;;;;;;;;;;5110915;28;20024;-61
2021/06/09 10:26:11;;;;;;;5.65;3.42;;;;;;;;;;5112031;28;20019;-66
2021/06/09 10:28:57;;;;;;;7.72;4.10;;;;;;;;;;5111856;28;20035;-61
2021/06/09 10:31:24;;;;;;;7.75;3.95;;;;;;;;;;5111682;28;20190;-63
2021/06/09 10:33:51;;;;;;;5.82;3.28;;;;;;;;;;5111311;28;20023;-63
2021/06/09 10:36:17;;;;;;;10.05;3.83;;;;;;;;;;5109881;28;20555;-71
2021/06/09 10:38:44;;;;;;;6.75;3.13;;;;;;;;;;5110896;28;20080;-74
2021/06/09 10:41:11;;;;;;;9.38;4.80;;;;;;;;;;5115658;27;20082;-63
2021/06/09 10:43:38;;;;;;;11.18;5.13;;;;;;;;;;5132568;27;20031;-63
2021/06/09 10:46:05;;;;;;;11.60;7.93;;;;;;;;;;5131965;27;20025;-61
2021/06/09 10:48:31;;;;;;;12.35;7.35;;;;;;;;;;5132151;27;20035;-60
2021/06/09 10:50:58;;;;;;;13.13;6.75;;;;;;;;;;5131610;27;20019;-60
2021/06/09 10:53:24;;;;;;;12.90;7.20;;;;;;;;;;5130728;27;20027;-60
2021/06/09 10:55:50;;;;;;;16.95;8.30;;;;;;;;;;5131586;27;20058;-66
2021/06/09 10:58:16;;;;;;;10.95;6.90;;;;;;;;;;5132184;27;20046;-63
2021/06/09 11:00:43;;;;;;;12.88;6.20;;;;;;;;;;5113507;28;20076;-66
2021/06/09 11:03:09;;;;;;;9.38;5.70;;;;;;;;;;5113569;28;20531;-65
2021/06/09 11:05:36;;;;;;;11.57;5.90;;;;;;;;;;5132219;28;20023;-63
2021/06/09 11:08:05;;;;;;;10.18;5.85;;;;;;;;;;5132250;28;20034;-66
2021/06/09 11:10:31;;;;;;;9.68;5.30;;;;;;;;;;5132296;28;20036;-66
2021/06/09 11:12:57;;;;;;;9.80;5.40;;;;;;;;;;5132465;28;20473;-63
2021/06/09 11:15:30;;;;;;;13.95;4.70;;;;;;;;;;5132228;28;20031;-64
2021/06/09 11:17:57;;;;;;;11.23;4.95;;;;;;;;;;5132086;28;20110;-64
2021/06/09 11:20:23;;;;;;;8.48;5.38;;;;;;;;;;5131631;28;20485;-65
2021/06/09 11:22:52;;;;;;;13.18;5.30;;;;;;;;;;5131997;28;20027;-66
2021/06/09 11:25:18;;;;;;;7.60;4.68;;;;;;;;;;5132054;28;20015;-63
2021/06/09 11:27:52;;;;;;;8.10;4.45;;;;;;;;;;5132089;28;20037;-66
2021/06/09 11:30:24;;;;;;;6.63;3.85;;;;;;;;;;5132209;28;20034;-66
2021/06/09 11:32:51;;;;;;;7.38;4.53;;;;;;;;;;5132206;28;20023;-67
2021/06/09 11:35:20;;;;;;;9.30;4.18;;;;;;;;;;5132155;28;20482;-66
2021/06/09 11:38:06;;;;;;;7.50;4.20;;;;;;;;;;5113636;28;20035;-64
2021/06/09 11:40:51;;;;;;;7.95;4.60;;;;;;;;;;5131489;27;20016;-63
2021/06/09 11:43:20;;;;;;;7.07;3.95;;;;;;;;;;5131914;28;20064;-65
2021/06/09 11:45:54;;;;;;;6.18;4.10;;;;;;;;;;5131798;28;20023;-67
2021/06/09 11:48:23;;;;;;;7.25;4.05;;;;;;;;;;5132256;27;20114;-62
2021/06/09 11:50:52;;;;;;;6.18;4.18;;;;;;;;;;5135680;27;20019;-62
2021/06/09 11:53:34;;;;;;;7.93;4.07;;;;;;;;;;5153198;27;20493;-67
2021/06/09 11:56:20;;;;;;;6.95;3.95;;;;;;;;;;5157899;27;20019;-67
2021/06/09 11:58:51;;;;;;;5.93;4.22;;;;;;;;;;5156668;27;20026;-67
2021/06/09 12:01:18;;;;;;;6.80;4.20;;;;;;;;;;5137741;27;20394;-66
2021/06/09 12:03:45;;;;;;;8.07;4.28;;;;;;;;;;5156143;27;20023;-65
2021/06/09 12:06:12;;;;;;;12.00;3.90;;;;;;;;;;5155968;27;20015;-69
2021/06/09 12:08:38;;;;;;;7.00;4.30;;;;;;;;;;5155649;27;20026;-66
2021/06/09 12:11:04;;;;;;;7.38;3.78;;;;;;;;;;5156009;27;20019;-62
2021/06/09 12:13:31;;;;;;;9.55;3.88;;;;;;;;;;5156356;27;20393;-60
2021/06/09 12:16:04;;;;;;;6.40;3.70;;;;;;;;;;5137881;27;20484;-65
2021/06/09 12:18:30;;;;;;;10.23;4.10;;;;;;;;;;5156151;27;20033;-64
2021/06/09 12:21:06;;;;;;;10.65;4.13;;;;;;;;;;5155716;27;20023;-61
2021/06/09 12:23:32;;;;;;;6.70;4.00;;;;;;;;;;5156191;27;20101;-61
2021/06/09 12:25:58;;;;;;;7.07;4.65;;;;;;;;;;5155746;27;20023;-65
2021/06/09 12:28:25;;;;;;;7.55;4.07;;;;;;;;;;5156808;27;20353;-62
2021/06/09 12:30:55;;;;;;;9.55;4.55;;;;;;;;;;5156522;27;20439;-62
2021/06/09 12:33:33;;;;;;;10.30;4.20;;;;;;;;;;5137975;27;20435;-60
2021/06/09 12:35:59;;;;;;;10.93;4.75;;;;;;;;;;5156416;27;20023;-62
2021/06/09 12:38:28;;;;;;;8.02;4.25;;;;;;;;;;5156287;27;20023;-65
2021/06/09 12:40:54;;;;;;;6.85;4.10;;;;;;;;;;5141842;27;20045;-61
2021/06/09 12:43:24;;;;;;;8.27;4.20;;;;;;;;;;5135256;27;20023;-61
2021/06/09 12:45:51;;;;;;;9.27;4.30;;;;;;;;;;5135223;27;20023;-61
2021/06/09 12:48:18;;;;;;;6.57;3.80;;;;;;;;;;5135709;27;20057;-61
2021/06/09 12:50:50;;;;;;;8.32;4.25;;;;;;;;;;5135418;27;20027;-61
2021/06/09 12:53:21;;;;;;;7.63;4.43;;;;;;;;;;5135353;27;20486;-63
2021/06/09 12:55:48;;;;;;;6.75;3.85;;;;;;;;;;5116690;27;20043;-65
2021/06/09 12:58:20;;;;;;;6.43;4.00;;;;;;;;;;5135039;27;20020;-61
2021/06/09 13:00:47;;;;;;;10.95;4.95;;;;;;;;;;5133717;27;20028;-62
2021/06/09 13:03:15;;;;;;;11.65;4.18;;;;;;;;;;5134554;27;20098;-63
2021/06/09 13:05:43;;;;;;;7.68;4.63;;;;;;;;;;5134743;27;20091;-61
2021/06/09 13:08:09;;;;;;;8.88;4.40;;;;;;;;;;5134810;27;20114;-58
2021/06/09 13:10:35;;;;;;;6.63;4.18;;;;;;;;;;5134955;27;20609;-60
2021/06/09 13:13:01;;;;;;;9.68;3.90;;;;;;;;;;5134901;27;20038;-62
2021/06/09 13:15:27;;;;;;;7.80;4.28;;;;;;;;;;5116341;27;20405;-64
2021/06/09 13:17:53;;;;;;;10.82;4.00;;;;;;;;;;5134366;27;20175;-61
2021/06/09 13:20:21;;;;;;;6.78;4.00;;;;;;;;;;5134140;27;20019;-61
2021/06/09 13:22:48;;;;;;;5.65;3.63;;;;;;;;;;5116209;27;20043;-61
2021/06/09 13:25:14;;;;;;;6.25;3.65;;;;;;;;;;5134547;27;20089;-60
2021/06/09 13:27:41;;;;;;;7.15;4.00;;;;;;;;;;5134344;27;20031;-60
2021/06/09 13:30:08;;;;;;;5.88;3.60;;;;;;;;;;5134151;27;20023;-62
2021/06/09 13:32:35;;;;;;;8.43;3.95;;;;;;;;;;5133904;27;20037;-62
2021/06/09 13:35:03;;;;;;;5.38;3.50;;;;;;;;;;5133862;27;20024;-60
2021/06/09 13:37:30;;;;;;;9.75;3.63;;;;;;;;;;5115390;27;20023;-60
2021/06/09 13:40:01;;;;;;;6.47;2.90;;;;;;;;;;5133552;27;20011;-61
2021/06/09 13:42:32;;;;;;;6.95;3.17;;;;;;;;;;5134215;27;20053;-60
2021/06/09 13:45:00;;;;;;;5.50;3.17;;;;;;;;;;5134014;27;20026;-65
2021/06/09 13:47:26;;;;;;;6.10;3.42;;;;;;;;;;5115592;27;20031;-61
2021/06/09 13:50:00;;;;;;;4.75;3.03;;;;;;;;;;5134294;27;20034;-61
2021/06/09 13:52:28;;;;;;;5.35;2.90;;;;;;;;;;5115567;27;20482;-66
2021/06/09 13:54:54;;;;;;;6.65;2.88;;;;;;;;;;5133858;27;20051;-60
2021/06/09 13:57:26;;;;;;;6.88;4.05;;;;;;;;;;5114955;27;20087;-61
2021/06/09 13:59:53;;;;;;;6.10;3.05;;;;;;;;;;5133448;27;20071;-59
2021/06/09 14:02:24;;;;;;;8.52;3.33;;;;;;;;;;5133401;27;20047;-62
2021/06/09 14:04:51;;;;;;;6.47;3.17;;;;;;;;;;5115396;27;20015;-67
2021/06/09 14:07:23;;;;;;;4.72;2.80;;;;;;;;;;5133634;27;20098;-62
2021/06/09 14:09:52;;;;;;;10.50;3.70;;;;;;;;;;5133711;27;20022;-60
2021/06/09 14:12:19;;;;;;;10.35;3.65;;;;;;;;;;5133122;27;20022;-66
2021/06/09 14:14:45;;;;;;;5.68;3.60;;;;;;;;;;5132871;27;20022;-60
2021/06/09 14:17:13;;;;;;;5.43;3.03;;;;;;;;;;5133352;27;20591;-61
2021/06/09 14:19:41;;;;;;;6.45;3.67;;;;;;;;;;5133051;27;20106;-60
2021/06/09 14:22:18;;;;;;;8.45;3.65;;;;;;;;;;5133275;27;20041;-60
2021/06/09 14:24:44;;;;;;;7.50;3.65;;;;;;;;;;5133102;27;20104;-64
2021/06/09 14:27:10;;;;;;;10.90;3.63;;;;;;;;;;5132671;27;20049;-61
2021/06/09 14:29:36;;;;;;;7.43;4.13;;;;;;;;;;5133358;27;20026;-62
2021/06/09 14:32:10;;;;;;;6.40;3.63;;;;;;;;;;5133050;27;20023;-59
2021/06/09 14:34:40;;;;;;;7.25;3.75;;;;;;;;;;5132867;27;20012;-60
2021/06/09 14:37:13;;;;;;;6.40;4.40;;;;;;;;;;5133110;27;20015;-61
2021/06/09 14:39:39;;;;;;;5.45;3.60;;;;;;;;;;5133115;27;20518;-63
2021/06/09 14:42:05;;;;;;;7.25;3.78;;;;;;;;;;5132976;27;20043;-64
2021/06/09 14:44:44;;;;;;;6.65;4.30;;;;;;;;;;5114243;27;20030;-61
2021/06/09 14:50:11;;;;;;;5.38;3.75;;;;;;;;;;5132788;27;20015;-62
2021/06/09 14:52:39;;;;;;;5.90;3.63;;;;;;;;;;5109220;27;20042;-65